sensor_id;sensor_type;location;lat;lon;timestamp;P1;durP1;ratioP1;P2;durP2;ratioP2
70342;SDS011;57767;42.068;24.752;2023-07-16T00:00:45;5.20;;;3.38;;
70342;SDS011;57767;42.068;24.752;2023-07-16T00:01:46;6.03;;;3.92;;
70342;SDS011;57767;42.068;24.752;2023-07-16T00:02:48;5.47;;;3.47;;
70342;SDS011;57767;42.068;24.752;2023-07-16T00:03:50;7.70;;;3.20;;
70342;SDS011;57767;42.068;24.752;2023-07-16T00:04:52;4.78;;;3.55;;
70342;SDS011;57767;42.068;24.752;2023-07-16T00:05:54;6.18;;;3.33;;
70342;SDS011;57767;42.068;24.752;2023-07-16T00:06:55;5.95;;;3.60;;
70342;SDS011;57767;42.068;24.752;2023-07-16T00:07:57;4.32;;;3.60;;
70342;SDS011;57767;42.068;24.752;2023-07-16T00:08:59;8.75;;;3.65;;
70342;SDS011;57767;42.068;24.752;2023-07-16T00:10:01;5.55;;;3.30;;
70342;SDS011;57767;42.068;24.752;2023-07-16T00:11:03;5.00;;;3.88;;
70342;SDS011;57767;42.068;24.752;2023-07-16T00:12:06;6.40;;;3.30;;
70342;SDS011;57767;42.068;24.752;2023-07-16T00:13:08;5.80;;;3.25;;
70342;SDS011;57767;42.068;24.752;2023-07-16T00:14:10;5.53;;;3.72;;
70342;SDS011;57767;42.068;24.752;2023-07-16T00:15:13;3.72;;;3.10;;
70342;SDS011;57767;42.068;24.752;2023-07-16T00:16:15;7.07;;;3.58;;
70342;SDS011;57767;42.068;24.752;2023-07-16T00:17:17;7.85;;;3.83;;
70342;SDS011;57767;42.068;24.752;2023-07-16T00:18:20;3.45;;;3.15;;
70342;SDS011;57767;42.068;24.752;2023-07-16T00:19:22;9.13;;;3.55;;
70342;SDS011;57767;42.068;24.752;2023-07-16T00:20:23;4.35;;;3.65;;
70342;SDS011;57767;42.068;24.752;2023-07-16T00:21:25;9.93;;;3.38;;
70342;SDS011;57767;42.068;24.752;2023-07-16T00:22:27;8.38;;;3.38;;
70342;SDS011;57767;42.068;24.752;2023-07-16T00:23:29;5.40;;;3.88;;
70342;SDS011;57767;42.068;24.752;2023-07-16T00:24:31;5.25;;;3.20;;
70342;SDS011;57767;42.068;24.752;2023-07-16T00:25:33;7.10;;;3.50;;
70342;SDS011;57767;42.068;24.752;2023-07-16T00:26:36;4.93;;;3.10;;
70342;SDS011;57767;42.068;24.752;2023-07-16T00:27:38;3.85;;;3.50;;
70342;SDS011;57767;42.068;24.752;2023-07-16T00:28:40;8.55;;;3.55;;
70342;SDS011;57767;42.068;24.752;2023-07-16T00:29:41;4.93;;;3.65;;
70342;SDS011;57767;42.068;24.752;2023-07-16T00:30:43;4.07;;;3.35;;
70342;SDS011;57767;42.068;24.752;2023-07-16T00:31:45;5.30;;;3.47;;
70342;SDS011;57767;42.068;24.752;2023-07-16T00:32:47;3.42;;;3.13;;
70342;SDS011;57767;42.068;24.752;2023-07-16T00:33:49;7.70;;;3.20;;
70342;SDS011;57767;42.068;24.752;2023-07-16T00:34:51;6.72;;;3.45;;
70342;SDS011;57767;42.068;24.752;2023-07-16T00:35:52;5.93;;;3.15;;
70342;SDS011;57767;42.068;24.752;2023-07-16T00:36:54;7.22;;;4.07;;
70342;SDS011;57767;42.068;24.752;2023-07-16T00:38:02;7.70;;;3.60;;
70342;SDS011;57767;42.068;24.752;2023-07-16T00:39:04;3.97;;;3.58;;
70342;SDS011;57767;42.068;24.752;2023-07-16T00:40:06;3.65;;;3.35;;
70342;SDS011;57767;42.068;24.752;2023-07-16T00:41:09;6.18;;;3.67;;
70342;SDS011;57767;42.068;24.752;2023-07-16T00:42:11;5.20;;;3.50;;
70342;SDS011;57767;42.068;24.752;2023-07-16T00:43:13;4.25;;;3.67;;
70342;SDS011;57767;42.068;24.752;2023-07-16T00:44:15;4.30;;;3.60;;
70342;SDS011;57767;42.068;24.752;2023-07-16T00:45:16;7.03;;;3.50;;
70342;SDS011;57767;42.068;24.752;2023-07-16T00:46:18;4.57;;;3.03;;
70342;SDS011;57767;42.068;24.752;2023-07-16T00:47:21;5.97;;;3.58;;
70342;SDS011;57767;42.068;24.752;2023-07-16T00:48:23;9.00;;;3.40;;
70342;SDS011;57767;42.068;24.752;2023-07-16T00:49:25;4.25;;;3.22;;
70342;SDS011;57767;42.068;24.752;2023-07-16T00:50:27;3.90;;;3.50;;
70342;SDS011;57767;42.068;24.752;2023-07-16T00:51:35;6.63;;;3.50;;
70342;SDS011;57767;42.068;24.752;2023-07-16T00:52:37;4.82;;;3.53;;
70342;SDS011;57767;42.068;24.752;2023-07-16T00:53:40;6.00;;;3.55;;
70342;SDS011;57767;42.068;24.752;2023-07-16T00:54:43;3.67;;;3.38;;
70342;SDS011;57767;42.068;24.752;2023-07-16T00:55:45;4.70;;;3.67;;
70342;SDS011;57767;42.068;24.752;2023-07-16T00:56:47;8.05;;;3.50;;
70342;SDS011;57767;42.068;24.752;2023-07-16T00:57:49;4.63;;;3.22;;
70342;SDS011;57767;42.068;24.752;2023-07-16T00:58:52;6.90;;;3.90;;
70342;SDS011;57767;42.068;24.752;2023-07-16T00:59:54;7.47;;;3.58;;
70342;SDS011;57767;42.068;24.752;2023-07-16T01:00:55;4.75;;;3.53;;
70342;SDS011;57767;42.068;24.752;2023-07-16T01:01:57;5.65;;;3.88;;
70342;SDS011;57767;42.068;24.752;2023-07-16T01:03:00;4.78;;;3.95;;
70342;SDS011;57767;42.068;24.752;2023-07-16T01:04:06;7.72;;;3.45;;
70342;SDS011;57767;42.068;24.752;2023-07-16T01:05:08;6.53;;;4.03;;
70342;SDS011;57767;42.068;24.752;2023-07-16T01:07:58;5.38;;;3.78;;
70342;SDS011;57767;42.068;24.752;2023-07-16T01:09:06;5.20;;;3.78;;
70342;SDS011;57767;42.068;24.752;2023-07-16T01:10:09;5.13;;;3.78;;
70342;SDS011;57767;42.068;24.752;2023-07-16T01:11:11;6.15;;;4.03;;
70342;SDS011;57767;42.068;24.752;2023-07-16T01:12:14;8.50;;;3.80;;
70342;SDS011;57767;42.068;24.752;2023-07-16T01:13:16;4.90;;;4.10;;
70342;SDS011;57767;42.068;24.752;2023-07-16T01:14:18;6.50;;;3.75;;
70342;SDS011;57767;42.068;24.752;2023-07-16T01:15:21;5.53;;;3.80;;
70342;SDS011;57767;42.068;24.752;2023-07-16T01:16:24;8.25;;;4.03;;
70342;SDS011;57767;42.068;24.752;2023-07-16T01:17:26;8.00;;;3.95;;
70342;SDS011;57767;42.068;24.752;2023-07-16T01:18:28;6.60;;;4.32;;
70342;SDS011;57767;42.068;24.752;2023-07-16T01:19:30;6.38;;;3.78;;
70342;SDS011;57767;42.068;24.752;2023-07-16T01:20:32;8.73;;;3.75;;
70342;SDS011;57767;42.068;24.752;2023-07-16T01:27:04;4.70;;;3.63;;
70342;SDS011;57767;42.068;24.752;2023-07-16T01:28:16;6.43;;;3.80;;
70342;SDS011;57767;42.068;24.752;2023-07-16T01:29:28;6.40;;;3.38;;
70342;SDS011;57767;42.068;24.752;2023-07-16T01:30:34;7.85;;;3.67;;
70342;SDS011;57767;42.068;24.752;2023-07-16T01:31:42;3.88;;;3.47;;
70342;SDS011;57767;42.068;24.752;2023-07-16T01:32:46;8.90;;;4.10;;
70342;SDS011;57767;42.068;24.752;2023-07-16T01:33:50;6.65;;;3.55;;
70342;SDS011;57767;42.068;24.752;2023-07-16T01:34:53;6.70;;;3.75;;
70342;SDS011;57767;42.068;24.752;2023-07-16T01:35:55;6.47;;;3.90;;
70342;SDS011;57767;42.068;24.752;2023-07-16T01:37:02;4.50;;;4.10;;
70342;SDS011;57767;42.068;24.752;2023-07-16T01:38:05;7.25;;;3.83;;
70342;SDS011;57767;42.068;24.752;2023-07-16T01:39:07;5.43;;;3.70;;
70342;SDS011;57767;42.068;24.752;2023-07-16T01:40:09;5.63;;;3.53;;
70342;SDS011;57767;42.068;24.752;2023-07-16T01:41:12;5.25;;;3.67;;
70342;SDS011;57767;42.068;24.752;2023-07-16T01:42:14;4.18;;;3.67;;
70342;SDS011;57767;42.068;24.752;2023-07-16T01:43:16;5.40;;;3.03;;
70342;SDS011;57767;42.068;24.752;2023-07-16T01:44:17;4.18;;;3.72;;
70342;SDS011;57767;42.068;24.752;2023-07-16T01:45:19;4.80;;;3.75;;
70342;SDS011;57767;42.068;24.752;2023-07-16T01:46:21;4.93;;;3.65;;
70342;SDS011;57767;42.068;24.752;2023-07-16T01:48:56;4.78;;;3.60;;
70342;SDS011;57767;42.068;24.752;2023-07-16T01:49:58;7.35;;;3.90;;
70342;SDS011;57767;42.068;24.752;2023-07-16T01:51:00;5.10;;;3.80;;
70342;SDS011;57767;42.068;24.752;2023-07-16T01:52:02;6.25;;;3.70;;
70342;SDS011;57767;42.068;24.752;2023-07-16T01:53:05;5.70;;;4.03;;
70342;SDS011;57767;42.068;24.752;2023-07-16T01:54:07;7.03;;;4.35;;
70342;SDS011;57767;42.068;24.752;2023-07-16T01:55:09;4.95;;;3.95;;
70342;SDS011;57767;42.068;24.752;2023-07-16T01:56:11;4.10;;;3.80;;
70342;SDS011;57767;42.068;24.752;2023-07-16T01:57:14;5.55;;;3.63;;
70342;SDS011;57767;42.068;24.752;2023-07-16T01:58:15;8.15;;;3.90;;
70342;SDS011;57767;42.068;24.752;2023-07-16T01:59:17;4.40;;;4.00;;
70342;SDS011;57767;42.068;24.752;2023-07-16T02:00:19;8.63;;;3.83;;
70342;SDS011;57767;42.068;24.752;2023-07-16T02:01:21;5.93;;;4.47;;
70342;SDS011;57767;42.068;24.752;2023-07-16T02:02:23;5.68;;;4.10;;
70342;SDS011;57767;42.068;24.752;2023-07-16T02:03:25;7.60;;;4.20;;
70342;SDS011;57767;42.068;24.752;2023-07-16T02:04:27;11.48;;;4.25;;
70342;SDS011;57767;42.068;24.752;2023-07-16T02:05:29;6.68;;;4.40;;
70342;SDS011;57767;42.068;24.752;2023-07-16T02:06:31;8.55;;;4.35;;
70342;SDS011;57767;42.068;24.752;2023-07-16T02:07:32;6.07;;;4.22;;
70342;SDS011;57767;42.068;24.752;2023-07-16T02:08:34;5.22;;;4.38;;
70342;SDS011;57767;42.068;24.752;2023-07-16T02:09:36;5.40;;;3.70;;
70342;SDS011;57767;42.068;24.752;2023-07-16T02:10:38;10.02;;;4.18;;
70342;SDS011;57767;42.068;24.752;2023-07-16T02:11:40;7.65;;;4.40;;
70342;SDS011;57767;42.068;24.752;2023-07-16T02:12:44;6.03;;;4.15;;
70342;SDS011;57767;42.068;24.752;2023-07-16T02:13:45;5.25;;;4.68;;
70342;SDS011;57767;42.068;24.752;2023-07-16T02:14:47;5.45;;;4.20;;
70342;SDS011;57767;42.068;24.752;2023-07-16T02:15:49;6.93;;;4.63;;
70342;SDS011;57767;42.068;24.752;2023-07-16T02:16:51;10.32;;;4.32;;
70342;SDS011;57767;42.068;24.752;2023-07-16T02:17:52;6.68;;;4.72;;
70342;SDS011;57767;42.068;24.752;2023-07-16T02:18:54;4.75;;;4.25;;
70342;SDS011;57767;42.068;24.752;2023-07-16T02:19:56;11.80;;;4.68;;
70342;SDS011;57767;42.068;24.752;2023-07-16T02:20:58;10.98;;;5.32;;
70342;SDS011;57767;42.068;24.752;2023-07-16T02:22:00;10.93;;;4.65;;
70342;SDS011;57767;42.068;24.752;2023-07-16T02:23:01;15.82;;;4.63;;
70342;SDS011;57767;42.068;24.752;2023-07-16T02:24:03;9.45;;;4.90;;
70342;SDS011;57767;42.068;24.752;2023-07-16T02:25:05;10.95;;;4.70;;
70342;SDS011;57767;42.068;24.752;2023-07-16T02:26:07;10.90;;;4.75;;
70342;SDS011;57767;42.068;24.752;2023-07-16T02:27:09;19.98;;;5.05;;
70342;SDS011;57767;42.068;24.752;2023-07-16T02:28:11;17.88;;;5.15;;
70342;SDS011;57767;42.068;24.752;2023-07-16T02:29:13;12.43;;;4.57;;
70342;SDS011;57767;42.068;24.752;2023-07-16T02:30:15;12.23;;;4.57;;
70342;SDS011;57767;42.068;24.752;2023-07-16T02:31:17;13.15;;;5.30;;
70342;SDS011;57767;42.068;24.752;2023-07-16T02:32:18;13.57;;;5.20;;
70342;SDS011;57767;42.068;24.752;2023-07-16T02:33:20;12.60;;;4.90;;
70342;SDS011;57767;42.068;24.752;2023-07-16T02:34:22;12.25;;;5.28;;
70342;SDS011;57767;42.068;24.752;2023-07-16T02:35:24;21.73;;;5.30;;
70342;SDS011;57767;42.068;24.752;2023-07-16T02:36:26;12.07;;;5.57;;
70342;SDS011;57767;42.068;24.752;2023-07-16T02:37:27;18.77;;;5.05;;
70342;SDS011;57767;42.068;24.752;2023-07-16T02:38:30;13.88;;;5.20;;
70342;SDS011;57767;42.068;24.752;2023-07-16T02:39:32;16.77;;;5.20;;
70342;SDS011;57767;42.068;24.752;2023-07-16T02:40:33;12.77;;;5.03;;
70342;SDS011;57767;42.068;24.752;2023-07-16T02:41:35;18.30;;;5.40;;
70342;SDS011;57767;42.068;24.752;2023-07-16T02:42:37;8.05;;;5.15;;
70342;SDS011;57767;42.068;24.752;2023-07-16T02:43:39;9.55;;;5.03;;
70342;SDS011;57767;42.068;24.752;2023-07-16T02:44:41;11.63;;;5.78;;
70342;SDS011;57767;42.068;24.752;2023-07-16T02:45:46;11.90;;;5.40;;
70342;SDS011;57767;42.068;24.752;2023-07-16T02:46:48;7.65;;;5.07;;
70342;SDS011;57767;42.068;24.752;2023-07-16T02:47:50;9.80;;;5.55;;
70342;SDS011;57767;42.068;24.752;2023-07-16T02:48:51;14.32;;;5.20;;
70342;SDS011;57767;42.068;24.752;2023-07-16T02:49:53;12.98;;;5.95;;
70342;SDS011;57767;42.068;24.752;2023-07-16T02:50:55;11.68;;;5.45;;
70342;SDS011;57767;42.068;24.752;2023-07-16T02:51:57;12.02;;;5.70;;
70342;SDS011;57767;42.068;24.752;2023-07-16T02:52:58;19.13;;;5.90;;
70342;SDS011;57767;42.068;24.752;2023-07-16T02:54:00;20.92;;;5.55;;
70342;SDS011;57767;42.068;24.752;2023-07-16T02:55:05;16.73;;;6.10;;
70342;SDS011;57767;42.068;24.752;2023-07-16T02:56:07;11.77;;;5.50;;
70342;SDS011;57767;42.068;24.752;2023-07-16T02:57:09;17.27;;;5.13;;
70342;SDS011;57767;42.068;24.752;2023-07-16T02:58:11;8.38;;;4.95;;
70342;SDS011;57767;42.068;24.752;2023-07-16T02:59:13;14.68;;;5.63;;
70342;SDS011;57767;42.068;24.752;2023-07-16T03:00:14;11.13;;;5.53;;
70342;SDS011;57767;42.068;24.752;2023-07-16T03:01:16;11.57;;;5.82;;
70342;SDS011;57767;42.068;24.752;2023-07-16T03:02:18;9.93;;;5.45;;
70342;SDS011;57767;42.068;24.752;2023-07-16T03:03:20;65.95;;;8.20;;
70342;SDS011;57767;42.068;24.752;2023-07-16T03:04:22;13.50;;;5.28;;
70342;SDS011;57767;42.068;24.752;2023-07-16T03:05:24;10.68;;;5.32;;
70342;SDS011;57767;42.068;24.752;2023-07-16T03:06:26;10.38;;;5.55;;
70342;SDS011;57767;42.068;24.752;2023-07-16T03:07:28;10.90;;;5.38;;
70342;SDS011;57767;42.068;24.752;2023-07-16T03:08:30;8.73;;;5.20;;
70342;SDS011;57767;42.068;24.752;2023-07-16T03:09:32;9.30;;;5.03;;
70342;SDS011;57767;42.068;24.752;2023-07-16T03:10:34;14.98;;;5.30;;
70342;SDS011;57767;42.068;24.752;2023-07-16T03:11:36;12.82;;;5.68;;
70342;SDS011;57767;42.068;24.752;2023-07-16T03:12:38;19.73;;;5.65;;
70342;SDS011;57767;42.068;24.752;2023-07-16T03:13:40;15.57;;;5.15;;
70342;SDS011;57767;42.068;24.752;2023-07-16T03:14:42;14.30;;;5.45;;
70342;SDS011;57767;42.068;24.752;2023-07-16T03:15:44;22.63;;;6.35;;
70342;SDS011;57767;42.068;24.752;2023-07-16T03:16:46;25.65;;;7.68;;
70342;SDS011;57767;42.068;24.752;2023-07-16T03:17:48;27.73;;;7.22;;
70342;SDS011;57767;42.068;24.752;2023-07-16T03:18:50;23.35;;;6.82;;
70342;SDS011;57767;42.068;24.752;2023-07-16T03:19:52;14.00;;;6.68;;
70342;SDS011;57767;42.068;24.752;2023-07-16T03:20:53;14.73;;;6.22;;
70342;SDS011;57767;42.068;24.752;2023-07-16T03:21:55;18.75;;;5.85;;
70342;SDS011;57767;42.068;24.752;2023-07-16T03:22:57;13.70;;;6.32;;
70342;SDS011;57767;42.068;24.752;2023-07-16T03:23:59;20.23;;;7.72;;
70342;SDS011;57767;42.068;24.752;2023-07-16T03:25:01;23.25;;;7.00;;
70342;SDS011;57767;42.068;24.752;2023-07-16T03:26:04;27.38;;;7.22;;
70342;SDS011;57767;42.068;24.752;2023-07-16T03:27:06;37.10;;;7.60;;
70342;SDS011;57767;42.068;24.752;2023-07-16T03:28:18;37.80;;;7.85;;
70342;SDS011;57767;42.068;24.752;2023-07-16T03:29:20;41.10;;;8.15;;
70342;SDS011;57767;42.068;24.752;2023-07-16T03:30:22;15.10;;;6.55;;
70342;SDS011;57767;42.068;24.752;2023-07-16T03:31:23;10.73;;;5.85;;
70342;SDS011;57767;42.068;24.752;2023-07-16T03:32:25;26.77;;;9.05;;
70342;SDS011;57767;42.068;24.752;2023-07-16T03:33:42;19.92;;;6.95;;
70342;SDS011;57767;42.068;24.752;2023-07-16T03:34:44;16.38;;;6.38;;
70342;SDS011;57767;42.068;24.752;2023-07-16T03:35:46;24.30;;;6.70;;
70342;SDS011;57767;42.068;24.752;2023-07-16T03:36:48;10.15;;;5.25;;
70342;SDS011;57767;42.068;24.752;2023-07-16T03:37:50;6.63;;;5.88;;
70342;SDS011;57767;42.068;24.752;2023-07-16T03:38:52;10.90;;;5.28;;
70342;SDS011;57767;42.068;24.752;2023-07-16T03:39:54;9.13;;;5.35;;
70342;SDS011;57767;42.068;24.752;2023-07-16T03:40:56;5.60;;;4.80;;
70342;SDS011;57767;42.068;24.752;2023-07-16T03:41:57;7.32;;;5.00;;
70342;SDS011;57767;42.068;24.752;2023-07-16T03:42:59;7.25;;;5.22;;
70342;SDS011;57767;42.068;24.752;2023-07-16T03:44:01;11.20;;;5.60;;
70342;SDS011;57767;42.068;24.752;2023-07-16T03:45:03;7.72;;;5.63;;
70342;SDS011;57767;42.068;24.752;2023-07-16T03:46:05;7.07;;;5.13;;
70342;SDS011;57767;42.068;24.752;2023-07-16T03:47:09;12.68;;;5.25;;
70342;SDS011;57767;42.068;24.752;2023-07-16T03:48:11;8.18;;;5.43;;
70342;SDS011;57767;42.068;24.752;2023-07-16T03:49:13;7.15;;;5.32;;
70342;SDS011;57767;42.068;24.752;2023-07-16T03:50:15;5.55;;;5.05;;
70342;SDS011;57767;42.068;24.752;2023-07-16T03:51:17;7.03;;;5.05;;
70342;SDS011;57767;42.068;24.752;2023-07-16T03:52:19;9.13;;;5.50;;
70342;SDS011;57767;42.068;24.752;2023-07-16T03:53:21;6.50;;;5.75;;
70342;SDS011;57767;42.068;24.752;2023-07-16T03:54:23;6.65;;;5.30;;
70342;SDS011;57767;42.068;24.752;2023-07-16T03:55:24;8.35;;;5.80;;
70342;SDS011;57767;42.068;24.752;2023-07-16T03:56:27;7.80;;;5.40;;
70342;SDS011;57767;42.068;24.752;2023-07-16T03:57:29;10.98;;;6.05;;
70342;SDS011;57767;42.068;24.752;2023-07-16T03:58:30;9.85;;;5.40;;
70342;SDS011;57767;42.068;24.752;2023-07-16T03:59:32;17.38;;;6.03;;
70342;SDS011;57767;42.068;24.752;2023-07-16T04:00:34;7.82;;;5.20;;
70342;SDS011;57767;42.068;24.752;2023-07-16T04:01:36;9.32;;;5.82;;
70342;SDS011;57767;42.068;24.752;2023-07-16T04:02:38;8.45;;;5.57;;
70342;SDS011;57767;42.068;24.752;2023-07-16T04:03:39;8.02;;;5.22;;
70342;SDS011;57767;42.068;24.752;2023-07-16T04:04:41;9.68;;;5.93;;
70342;SDS011;57767;42.068;24.752;2023-07-16T04:05:43;10.50;;;5.55;;
70342;SDS011;57767;42.068;24.752;2023-07-16T04:06:45;8.98;;;5.35;;
70342;SDS011;57767;42.068;24.752;2023-07-16T04:07:46;7.22;;;5.60;;
70342;SDS011;57767;42.068;24.752;2023-07-16T04:08:48;9.57;;;5.82;;
70342;SDS011;57767;42.068;24.752;2023-07-16T04:09:50;8.00;;;4.97;;
70342;SDS011;57767;42.068;24.752;2023-07-16T04:10:52;6.65;;;5.65;;
70342;SDS011;57767;42.068;24.752;2023-07-16T04:11:57;9.88;;;4.80;;
70342;SDS011;57767;42.068;24.752;2023-07-16T04:12:59;9.48;;;5.55;;
70342;SDS011;57767;42.068;24.752;2023-07-16T04:14:00;8.02;;;5.50;;
70342;SDS011;57767;42.068;24.752;2023-07-16T04:15:06;10.50;;;5.82;;
70342;SDS011;57767;42.068;24.752;2023-07-16T04:16:09;8.20;;;5.65;;
70342;SDS011;57767;42.068;24.752;2023-07-16T04:17:11;9.40;;;5.68;;
70342;SDS011;57767;42.068;24.752;2023-07-16T04:18:13;7.40;;;5.72;;
70342;SDS011;57767;42.068;24.752;2023-07-16T04:19:17;10.98;;;6.22;;
70342;SDS011;57767;42.068;24.752;2023-07-16T04:20:19;9.30;;;5.82;;
70342;SDS011;57767;42.068;24.752;2023-07-16T04:21:20;10.68;;;6.22;;
70342;SDS011;57767;42.068;24.752;2023-07-16T04:22:22;10.20;;;6.10;;
70342;SDS011;57767;42.068;24.752;2023-07-16T04:23:24;15.02;;;6.13;;
70342;SDS011;57767;42.068;24.752;2023-07-16T04:24:26;14.27;;;6.90;;
70342;SDS011;57767;42.068;24.752;2023-07-16T04:25:28;14.68;;;6.70;;
70342;SDS011;57767;42.068;24.752;2023-07-16T04:26:30;13.02;;;7.20;;
70342;SDS011;57767;42.068;24.752;2023-07-16T04:27:32;8.23;;;5.90;;
70342;SDS011;57767;42.068;24.752;2023-07-16T04:28:33;11.10;;;5.80;;
70342;SDS011;57767;42.068;24.752;2023-07-16T04:29:35;7.15;;;5.85;;
70342;SDS011;57767;42.068;24.752;2023-07-16T04:30:37;11.82;;;5.78;;
70342;SDS011;57767;42.068;24.752;2023-07-16T04:31:39;11.95;;;5.90;;
70342;SDS011;57767;42.068;24.752;2023-07-16T04:32:41;8.63;;;6.18;;
70342;SDS011;57767;42.068;24.752;2023-07-16T04:33:43;11.48;;;5.95;;
70342;SDS011;57767;42.068;24.752;2023-07-16T04:34:44;9.00;;;5.95;;
70342;SDS011;57767;42.068;24.752;2023-07-16T04:35:46;9.55;;;5.07;;
70342;SDS011;57767;42.068;24.752;2023-07-16T04:36:48;10.10;;;5.63;;
70342;SDS011;57767;42.068;24.752;2023-07-16T04:37:50;8.07;;;5.97;;
70342;SDS011;57767;42.068;24.752;2023-07-16T04:38:52;6.63;;;5.38;;
70342;SDS011;57767;42.068;24.752;2023-07-16T04:39:54;5.70;;;5.10;;
70342;SDS011;57767;42.068;24.752;2023-07-16T04:40:56;8.13;;;5.50;;
70342;SDS011;57767;42.068;24.752;2023-07-16T04:41:58;5.53;;;4.72;;
70342;SDS011;57767;42.068;24.752;2023-07-16T04:42:59;8.15;;;4.93;;
70342;SDS011;57767;42.068;24.752;2023-07-16T04:44:01;6.85;;;5.57;;
70342;SDS011;57767;42.068;24.752;2023-07-16T04:45:03;6.05;;;4.75;;
70342;SDS011;57767;42.068;24.752;2023-07-16T04:46:06;9.80;;;5.35;;
70342;SDS011;57767;42.068;24.752;2023-07-16T04:47:08;7.03;;;5.20;;
70342;SDS011;57767;42.068;24.752;2023-07-16T04:48:10;8.45;;;4.90;;
70342;SDS011;57767;42.068;24.752;2023-07-16T04:49:11;8.57;;;4.97;;
70342;SDS011;57767;42.068;24.752;2023-07-16T04:50:13;8.77;;;4.60;;
70342;SDS011;57767;42.068;24.752;2023-07-16T04:51:18;6.35;;;5.10;;
70342;SDS011;57767;42.068;24.752;2023-07-16T04:52:22;9.20;;;5.30;;
70342;SDS011;57767;42.068;24.752;2023-07-16T04:53:24;8.95;;;4.90;;
70342;SDS011;57767;42.068;24.752;2023-07-16T04:54:26;6.78;;;4.88;;
70342;SDS011;57767;42.068;24.752;2023-07-16T04:55:28;5.82;;;4.30;;
70342;SDS011;57767;42.068;24.752;2023-07-16T04:56:30;8.57;;;4.68;;
70342;SDS011;57767;42.068;24.752;2023-07-16T04:57:32;7.13;;;4.90;;
70342;SDS011;57767;42.068;24.752;2023-07-16T04:58:34;9.25;;;5.40;;
70342;SDS011;57767;42.068;24.752;2023-07-16T04:59:36;9.25;;;5.30;;
70342;SDS011;57767;42.068;24.752;2023-07-16T05:00:38;4.85;;;4.32;;
70342;SDS011;57767;42.068;24.752;2023-07-16T05:01:40;6.68;;;4.90;;
70342;SDS011;57767;42.068;24.752;2023-07-16T05:02:42;7.95;;;4.95;;
70342;SDS011;57767;42.068;24.752;2023-07-16T05:03:44;7.72;;;5.43;;
70342;SDS011;57767;42.068;24.752;2023-07-16T05:04:45;7.72;;;5.07;;
70342;SDS011;57767;42.068;24.752;2023-07-16T05:05:49;5.70;;;5.10;;
70342;SDS011;57767;42.068;24.752;2023-07-16T05:06:51;7.75;;;5.32;;
70342;SDS011;57767;42.068;24.752;2023-07-16T05:07:54;8.05;;;5.00;;
70342;SDS011;57767;42.068;24.752;2023-07-16T05:08:56;9.35;;;4.80;;
70342;SDS011;57767;42.068;24.752;2023-07-16T05:09:57;5.22;;;4.55;;
70342;SDS011;57767;42.068;24.752;2023-07-16T05:11:00;5.95;;;4.95;;
70342;SDS011;57767;42.068;24.752;2023-07-16T05:12:03;5.03;;;4.40;;
70342;SDS011;57767;42.068;24.752;2023-07-16T05:13:05;5.20;;;4.70;;
70342;SDS011;57767;42.068;24.752;2023-07-16T05:14:06;6.10;;;4.70;;
70342;SDS011;57767;42.068;24.752;2023-07-16T05:15:08;7.95;;;4.63;;
70342;SDS011;57767;42.068;24.752;2023-07-16T05:16:10;6.03;;;4.38;;
70342;SDS011;57767;42.068;24.752;2023-07-16T05:17:13;4.85;;;4.30;;
70342;SDS011;57767;42.068;24.752;2023-07-16T05:18:16;4.75;;;4.25;;
70342;SDS011;57767;42.068;24.752;2023-07-16T05:19:18;7.70;;;4.82;;
70342;SDS011;57767;42.068;24.752;2023-07-16T05:20:20;8.27;;;4.57;;
70342;SDS011;57767;42.068;24.752;2023-07-16T05:21:21;6.70;;;4.57;;
70342;SDS011;57767;42.068;24.752;2023-07-16T05:22:23;5.63;;;4.35;;
70342;SDS011;57767;42.068;24.752;2023-07-16T05:23:25;5.07;;;4.57;;
70342;SDS011;57767;42.068;24.752;2023-07-16T05:24:28;6.72;;;4.45;;
70342;SDS011;57767;42.068;24.752;2023-07-16T05:25:30;7.82;;;4.35;;
70342;SDS011;57767;42.068;24.752;2023-07-16T05:26:33;7.50;;;4.95;;
70342;SDS011;57767;42.068;24.752;2023-07-16T05:27:34;9.93;;;4.65;;
70342;SDS011;57767;42.068;24.752;2023-07-16T05:28:37;5.70;;;4.65;;
70342;SDS011;57767;42.068;24.752;2023-07-16T05:29:38;8.75;;;4.50;;
70342;SDS011;57767;42.068;24.752;2023-07-16T05:30:40;4.57;;;3.60;;
70342;SDS011;57767;42.068;24.752;2023-07-16T05:31:42;7.38;;;4.30;;
70342;SDS011;57767;42.068;24.752;2023-07-16T05:32:45;10.63;;;4.40;;
70342;SDS011;57767;42.068;24.752;2023-07-16T05:33:47;4.55;;;3.90;;
70342;SDS011;57767;42.068;24.752;2023-07-16T05:34:48;13.10;;;4.65;;
70342;SDS011;57767;42.068;24.752;2023-07-16T05:35:50;9.40;;;4.78;;
70342;SDS011;57767;42.068;24.752;2023-07-16T05:36:53;8.20;;;4.13;;
70342;SDS011;57767;42.068;24.752;2023-07-16T05:37:56;8.32;;;4.22;;
70342;SDS011;57767;42.068;24.752;2023-07-16T05:38:58;5.80;;;4.32;;
70342;SDS011;57767;42.068;24.752;2023-07-16T05:39:59;9.85;;;3.92;;
70342;SDS011;57767;42.068;24.752;2023-07-16T05:41:02;7.57;;;4.30;;
70342;SDS011;57767;42.068;24.752;2023-07-16T05:42:04;7.72;;;4.30;;
70342;SDS011;57767;42.068;24.752;2023-07-16T05:43:08;7.97;;;4.10;;
70342;SDS011;57767;42.068;24.752;2023-07-16T05:44:10;8.68;;;3.97;;
70342;SDS011;57767;42.068;24.752;2023-07-16T05:45:11;7.28;;;4.10;;
70342;SDS011;57767;42.068;24.752;2023-07-16T05:46:13;6.85;;;4.22;;
70342;SDS011;57767;42.068;24.752;2023-07-16T05:47:16;7.88;;;4.57;;
70342;SDS011;57767;42.068;24.752;2023-07-16T05:48:17;5.28;;;4.25;;
70342;SDS011;57767;42.068;24.752;2023-07-16T05:49:19;8.55;;;4.32;;
70342;SDS011;57767;42.068;24.752;2023-07-16T05:50:21;4.88;;;4.20;;
70342;SDS011;57767;42.068;24.752;2023-07-16T05:51:23;5.47;;;4.15;;
70342;SDS011;57767;42.068;24.752;2023-07-16T05:52:25;6.90;;;4.20;;
70342;SDS011;57767;42.068;24.752;2023-07-16T05:53:27;6.53;;;4.30;;
70342;SDS011;57767;42.068;24.752;2023-07-16T05:54:29;6.75;;;4.30;;
70342;SDS011;57767;42.068;24.752;2023-07-16T05:55:31;7.97;;;4.30;;
70342;SDS011;57767;42.068;24.752;2023-07-16T05:56:33;5.85;;;3.90;;
70342;SDS011;57767;42.068;24.752;2023-07-16T05:57:35;8.40;;;4.65;;
70342;SDS011;57767;42.068;24.752;2023-07-16T05:58:36;11.65;;;3.90;;
70342;SDS011;57767;42.068;24.752;2023-07-16T05:59:38;7.55;;;4.32;;
70342;SDS011;57767;42.068;24.752;2023-07-16T06:00:40;7.18;;;4.28;;
70342;SDS011;57767;42.068;24.752;2023-07-16T06:01:42;6.15;;;3.80;;
70342;SDS011;57767;42.068;24.752;2023-07-16T06:02:44;5.18;;;4.25;;
70342;SDS011;57767;42.068;24.752;2023-07-16T06:03:46;7.35;;;4.10;;
70342;SDS011;57767;42.068;24.752;2023-07-16T06:04:47;5.43;;;3.83;;
70342;SDS011;57767;42.068;24.752;2023-07-16T06:05:49;4.72;;;4.05;;
70342;SDS011;57767;42.068;24.752;2023-07-16T06:06:51;7.00;;;4.03;;
70342;SDS011;57767;42.068;24.752;2023-07-16T06:07:53;8.60;;;3.78;;
70342;SDS011;57767;42.068;24.752;2023-07-16T06:08:55;7.25;;;4.07;;
70342;SDS011;57767;42.068;24.752;2023-07-16T06:09:57;6.32;;;3.72;;
70342;SDS011;57767;42.068;24.752;2023-07-16T06:10:59;6.75;;;3.65;;
70342;SDS011;57767;42.068;24.752;2023-07-16T06:12:01;9.27;;;4.13;;
70342;SDS011;57767;42.068;24.752;2023-07-16T06:13:03;4.28;;;3.85;;
70342;SDS011;57767;42.068;24.752;2023-07-16T06:14:06;9.25;;;3.80;;
70342;SDS011;57767;42.068;24.752;2023-07-16T06:15:07;4.03;;;3.63;;
70342;SDS011;57767;42.068;24.752;2023-07-16T06:16:10;7.30;;;3.72;;
70342;SDS011;57767;42.068;24.752;2023-07-16T06:17:11;4.32;;;3.75;;